MSC Ines — 3EFZ3 — position and weather

sailwx.info

Track history (hours):
 
Tides and Currents Weather Stations Pressure Air Temp Water Temp Dewpoint Dewpoint Depression Visibility Wind Speed Wind Dir Waves Ship Positions

MSC Ines

Last reported at 2017-Apr-20 01:53 UTC. Time now 2017-Apr-23 08:11 UTC.
Position S 30°37' E 030°52'.

Length 349 m; draft 12.2 m.

Type: Ship (hazmat cat A). MMSI: 356112000.

Date/timePositionNaut miles runAvg speedWind from/ knotsBaromVisibWave heightAir tempDewpointWater temp
2017-Apr-20 01:53S 30°37' E 030°52'5 9.8
2017-Apr-20 01:21S 30°32' E 030°55'3 9.5
2017-Apr-20 01:00S 30°30' E 030°57'5 9.1
2017-Apr-20 00:30S 30°26' E 030°60'4 8.4
2017-Apr-20 00:00S 30°22' E 031°02'4 7.9
2017-Apr-19 23:30S 30°19' E 031°05'4 7.7
2017-Apr-19 23:00S 30°15' E 031°07'4 7.9
2017-Apr-19 22:30S 30°12' E 031°09'4 8.0
2017-Apr-19 22:00S 30°08' E 031°10'4 8.3
2017-Apr-19 21:30S 30°04' E 031°12'4 8.5
2017-Apr-19 21:01S 29°60' E 031°13'510.1
2017-Apr-19 20:30S 29°55' E 031°10'510.3
2017-Apr-19 20:01S 29°51' E 031°07'4 8.0
2017-Apr-19 19:30S 29°53' E 031°03'1 2.5
2017-Apr-19 19:00S 29°53' E 031°01'0 0.3
2017-Apr-19 18:30S 29°53' E 031°01'0 0.0
2017-Apr-19 18:00S 29°53' E 031°01'0 0.0
2017-Apr-19 17:30S 29°53' E 031°01'0 0.0
2017-Apr-19 17:00S 29°53' E 031°01'0 0.0
2017-Apr-19 16:30S 29°53' E 031°01'0 0.0
2017-Apr-19 16:00S 29°53' E 031°01'0 0.0
2017-Apr-19 15:30S 29°53' E 031°01'0 0.0
2017-Apr-19 15:00S 29°53' E 031°01'0 0.0
2017-Apr-19 14:30S 29°53' E 031°01'0 0.0
2017-Apr-19 13:24S 29°53' E 031°01'0 0.0
2017-Apr-19 13:00S 29°53' E 031°01'0 0.0
2017-Apr-19 12:30S 29°53' E 031°01'0 0.0
2017-Apr-19 12:00S 29°53' E 031°01'0 0.0
2017-Apr-19 11:18S 29°53' E 031°01'0 0.0
2017-Apr-19 10:48S 29°53' E 031°01'0 0.0
2017-Apr-19 10:30S 29°53' E 031°01'0 0.0
2017-Apr-19 10:00S 29°53' E 031°01'0 0.0
2017-Apr-19 09:30S 29°53' E 031°01'0 0.0
2017-Apr-19 09:00S 29°53' E 031°01'0 0.0
2017-Apr-19 08:30S 29°53' E 031°01'0 0.0
2017-Apr-19 08:00S 29°53' E 031°01'0 0.0
2017-Apr-19 07:30S 29°53' E 031°01'0 0.0
2017-Apr-19 07:00S 29°53' E 031°01'0 0.0
2017-Apr-19 06:30S 29°53' E 031°01'0 0.0
2017-Apr-19 06:00S 29°53' E 031°01'0 0.0
2017-Apr-19 05:30S 29°53' E 031°01'0 0.0
2017-Apr-19 05:00S 29°53' E 031°01'0 0.0
2017-Apr-19 04:30S 29°53' E 031°01'0 0.0
2017-Apr-19 04:00S 29°53' E 031°01'0 0.0
2017-Apr-19 03:30S 29°53' E 031°01'0 0.0
2017-Apr-19 03:00S 29°53' E 031°01'0 0.0
2017-Apr-19 02:30S 29°53' E 031°01'0 0.0
2017-Apr-19 01:57S 29°53' E 031°01'0 0.0
2017-Apr-19 01:30S 29°53' E 031°01'0 0.0
2017-Apr-19 01:00S 29°53' E 031°01'0 0.0
2017-Apr-19 00:30S 29°53' E 031°01'0 0.0
2017-Apr-19 00:00S 29°53' E 031°01'0 0.0
2017-Apr-18 23:30S 29°53' E 031°01'0 0.0
2017-Apr-18 23:00S 29°53' E 031°01'0 0.0
2017-Apr-18 22:18S 29°53' E 031°01'0 0.0
2017-Apr-18 22:00S 29°53' E 031°01'0 0.0
2017-Apr-18 21:30S 29°53' E 031°01'0 0.0
2017-Apr-18 21:00S 29°53' E 031°01'0 0.0
2017-Apr-18 20:30S 29°53' E 031°01'0 0.0
2017-Apr-18 20:00S 29°53' E 031°01'0 0.0
2017-Apr-18 19:30S 29°53' E 031°01'0 0.0
2017-Apr-18 19:00S 29°53' E 031°01'0 0.0
2017-Apr-18 18:30S 29°53' E 031°01'0 0.0
2017-Apr-18 18:00S 29°53' E 031°01'0 0.0
2017-Apr-18 17:30S 29°53' E 031°01'0 0.0
2017-Apr-18 17:00S 29°53' E 031°01'0 0.0
2017-Apr-18 16:30S 29°53' E 031°01'0 0.0
2017-Apr-18 16:00S 29°53' E 031°01'0 0.0
2017-Apr-18 15:27S 29°53' E 031°01'0 0.0
2017-Apr-18 15:00S 29°53' E 031°01'0 0.0
2017-Apr-18 14:30S 29°53' E 031°01'0 0.0
2017-Apr-18 13:30S 29°53' E 031°01'0 0.0
2017-Apr-18 13:00S 29°53' E 031°01'0 0.0
2017-Apr-18 12:30S 29°53' E 031°01'0 0.0
2017-Apr-18 12:00S 29°53' E 031°01'0 0.0
2017-Apr-18 11:30S 29°53' E 031°01'0 0.0
2017-Apr-18 10:54S 29°53' E 031°01'0 0.0
2017-Apr-18 10:30S 29°53' E 031°01'0 0.0
2017-Apr-18 10:00S 29°53' E 031°01'0 0.0
2017-Apr-18 09:30S 29°53' E 031°01'0 0.0
2017-Apr-18 08:54S 29°53' E 031°01'0 0.0
2017-Apr-18 08:30S 29°53' E 031°01'0 0.0
2017-Apr-18 08:00S 29°53' E 031°01'0 0.0
2017-Apr-18 07:27S 29°53' E 031°01'0 0.0
2017-Apr-18 07:00S 29°53' E 031°01'0 0.0
2017-Apr-18 06:30S 29°53' E 031°01'0 0.0
2017-Apr-18 06:00S 29°53' E 031°01'0 0.0
2017-Apr-18 05:24S 29°53' E 031°01'0 0.0
2017-Apr-18 04:57S 29°53' E 031°01'0 0.0
2017-Apr-18 04:30S 29°53' E 031°01'0 0.0
2017-Apr-18 04:00S 29°53' E 031°01'0 0.0
2017-Apr-18 03:30S 29°53' E 031°01'0 0.0
2017-Apr-18 03:00S 29°53' E 031°01'0 0.0
2017-Apr-18 02:30S 29°53' E 031°01'0 0.0
2017-Apr-18 02:00S 29°53' E 031°01'0 0.6
2017-Apr-18 01:30S 29°53' E 031°02'2 3.3
2017-Apr-18 01:00S 29°52' E 031°03'4 8.5
2017-Apr-18 00:30S 29°49' E 031°07'510.4
2017-Apr-18 00:00S 29°47' E 031°12'4 7.1
2017-Apr-17 23:30S 29°43' E 031°12'0 0.3
2017-Apr-17 23:00S 29°43' E 031°12'0 0.0
2017-Apr-17 22:30S 29°43' E 031°12'0 0.0
2017-Apr-17 21:57S 29°43' E 031°12'0 0.0
2017-Apr-17 21:28S 29°43' E 031°12'0 0.1
2017-Apr-17 20:58S 29°43' E 031°12'0 0.1
2017-Apr-17 20:29S 29°43' E 031°12'0 0.0
2017-Apr-17 19:58S 29°43' E 031°12'0 0.0
2017-Apr-17 19:29S 29°43' E 031°12'0 0.0
2017-Apr-17 19:00S 29°43' E 031°12'0 0.1
2017-Apr-17 18:28S 29°43' E 031°12'0 0.0
2017-Apr-17 17:58S 29°43' E 031°12'0 0.0
2017-Apr-17 17:30S 29°43' E 031°12'0 0.0
2017-Apr-17 16:58S 29°43' E 031°12'0 0.2
2017-Apr-17 16:28S 29°43' E 031°12'0 0.0
2017-Apr-17 15:59S 29°43' E 031°12'0 0.1
2017-Apr-17 15:25S 29°43' E 031°12'0 0.1
2017-Apr-17 14:58S 29°43' E 031°12'0 0.1
2017-Apr-17 13:58S 29°43' E 031°12'0 0.2
2017-Apr-17 13:28S 29°43' E 031°12'0 0.1
2017-Apr-17 12:58S 29°43' E 031°12'0 0.1
2017-Apr-17 12:27S 29°43' E 031°12'0 0.1
2017-Apr-17 12:00S 29°43' E 031°12'0 0.1
2017-Apr-17 11:26S 29°43' E 031°12'0 0.1
2017-Apr-17 10:56S 29°43' E 031°12'0 0.1
2017-Apr-17 10:17S 29°43' E 031°12'0 0.2
2017-Apr-17 09:59S 29°43' E 031°12'0 0.1
2017-Apr-17 09:29S 29°43' E 031°12'0 0.0
2017-Apr-17 08:57S 29°43' E 031°12'0 0.1
2017-Apr-17 08:27S 29°43' E 031°12'0 0.0
2017-Apr-17 08:00S 29°43' E 031°12'0 0.0
2017-Apr-17 07:28S 29°43' E 031°12'0 0.0
2017-Apr-17 06:56S 29°43' E 031°12'0 0.1
2017-Apr-17 06:26S 29°43' E 031°12'0 0.0
2017-Apr-17 05:59S 29°43' E 031°12'0 0.0
2017-Apr-17 05:29S 29°43' E 031°12'0 0.0
2017-Apr-17 04:59S 29°43' E 031°12'0 0.0
2017-Apr-17 04:28S 29°43' E 031°12'0 0.0
2017-Apr-17 03:59S 29°43' E 031°12'0 0.1
2017-Apr-17 03:29S 29°43' E 031°12'0 0.1
2017-Apr-17 02:59S 29°43' E 031°12'0 0.0
2017-Apr-17 02:29S 29°43' E 031°12'0 0.0
2017-Apr-17 01:59S 29°43' E 031°12'0 0.0
2017-Apr-17 01:29S 29°43' E 031°12'0 0.0
2017-Apr-17 00:59S 29°43' E 031°12'0 0.0
2017-Apr-17 00:29S 29°43' E 031°12'0 0.0
2017-Apr-16 23:58S 29°43' E 031°12'0 0.0
2017-Apr-16 23:28S 29°43' E 031°12'0 0.0
2017-Apr-16 22:58S 29°43' E 031°12'0 0.0
2017-Apr-16 22:27S 29°43' E 031°12'0 0.0
2017-Apr-16 21:59S 29°43' E 031°12'0 0.0
2017-Apr-16 21:30S 29°43' E 031°12'0 0.0
2017-Apr-16 21:00S 29°43' E 031°12'0 0.0
2017-Apr-16 20:30S 29°43' E 031°12'0 0.0
2017-Apr-16 20:00S 29°43' E 031°12'0 0.0
2017-Apr-16 19:30S 29°43' E 031°12'0 0.0
2017-Apr-16 19:00S 29°43' E 031°12'0 0.0
2017-Apr-16 18:30S 29°43' E 031°12'0 0.0
2017-Apr-16 18:00S 29°43' E 031°12'0 0.0
2017-Apr-16 17:29S 29°43' E 031°12'0 0.0
2017-Apr-16 16:58S 29°43' E 031°12'0 0.1
2017-Apr-16 16:28S 29°43' E 031°12'0 0.0
2017-Apr-16 16:00S 29°43' E 031°12'0 0.0
2017-Apr-16 15:30S 29°43' E 031°12'0 0.0
2017-Apr-16 15:00S 29°43' E 031°12'0 0.0
2017-Apr-16 14:30S 29°43' E 031°12'0 0.0
2017-Apr-16 13:30S 29°43' E 031°12'0 0.0
2017-Apr-16 12:59S 29°43' E 031°12'0 0.0
2017-Apr-16 12:26S 29°43' E 031°12'0 0.0
2017-Apr-16 11:59S 29°43' E 031°12'0 0.0
2017-Apr-16 11:28S 29°43' E 031°12'0 0.0
2017-Apr-16 10:59S 29°43' E 031°12'0 0.0
2017-Apr-16 10:29S 29°43' E 031°12'0 0.0
2017-Apr-16 09:59S 29°43' E 031°12'0 0.0
2017-Apr-16 09:28S 29°43' E 031°12'0 0.1
2017-Apr-16 08:58S 29°43' E 031°12'0 0.0
2017-Apr-16 08:27S 29°43' E 031°12'0 0.1
2017-Apr-16 08:00S 29°43' E 031°12'0 0.0
2017-Apr-16 07:30S 29°43' E 031°12'0 0.0
2017-Apr-16 06:56S 29°43' E 031°12'0 0.1
2017-Apr-16 06:29S 29°43' E 031°12'1 1.5
2017-Apr-16 06:00S 29°43' E 031°12'2 4.9
2017-Apr-16 05:31S 29°44' E 031°15'816.0
2017-Apr-16 05:01S 29°52' E 031°15'816.3
2017-Apr-16 04:30S 30°00' E 031°15'815.6
2017-Apr-16 04:01S 30°07' E 031°13'815.5
2017-Apr-16 03:31S 30°14' E 031°07'815.6
2017-Apr-16 03:00S 30°20' E 031°02'714.6
2017-Apr-16 02:30S 30°26' E 030°58'68715.7
2017-Apr-14 06:53S 33°59' E 018°06'718.7
2017-Apr-14 06:30S 33°52' E 018°03'  
Track history (hours):
 
Tides and Currents Weather Stations Pressure Air Temp Water Temp Dewpoint Dewpoint Depression Visibility Wind Speed Wind Dir Waves Ship Positions

MSC Ines

Last reported at 2017-Apr-20 01:53 UTC. Time now 2017-Apr-23 08:11 UTC.
Position S 30°37' E 030°52'.

Length 349 m; draft 12.2 m.

Type: Ship (hazmat cat A). MMSI: 356112000.

Date/timePositionNaut miles runAvg speedWind from/ knotsBaromVisibWave heightAir tempDewpointWater temp
2017-Apr-20 01:53S 30°37' E 030°52'5 9.8
2017-Apr-20 01:21S 30°32' E 030°55'3 9.5
2017-Apr-20 01:00S 30°30' E 030°57'5 9.1
2017-Apr-20 00:30S 30°26' E 030°60'4 8.4
2017-Apr-20 00:00S 30°22' E 031°02'4 7.9
2017-Apr-19 23:30S 30°19' E 031°05'4 7.7
2017-Apr-19 23:00S 30°15' E 031°07'4 7.9
2017-Apr-19 22:30S 30°12' E 031°09'4 8.0
2017-Apr-19 22:00S 30°08' E 031°10'4 8.3
2017-Apr-19 21:30S 30°04' E 031°12'4 8.5
2017-Apr-19 21:01S 29°60' E 031°13'510.1
2017-Apr-19 20:30S 29°55' E 031°10'510.3
2017-Apr-19 20:01S 29°51' E 031°07'4 8.0
2017-Apr-19 19:30S 29°53' E 031°03'1 2.5
2017-Apr-19 19:00S 29°53' E 031°01'0 0.3
2017-Apr-19 18:30S 29°53' E 031°01'0 0.0
2017-Apr-19 18:00S 29°53' E 031°01'0 0.0
2017-Apr-19 17:30S 29°53' E 031°01'0 0.0
2017-Apr-19 17:00S 29°53' E 031°01'0 0.0
2017-Apr-19 16:30S 29°53' E 031°01'0 0.0
2017-Apr-19 16:00S 29°53' E 031°01'0 0.0
2017-Apr-19 15:30S 29°53' E 031°01'0 0.0
2017-Apr-19 15:00S 29°53' E 031°01'0 0.0
2017-Apr-19 14:30S 29°53' E 031°01'0 0.0
2017-Apr-19 13:24S 29°53' E 031°01'0 0.0
2017-Apr-19 13:00S 29°53' E 031°01'0 0.0
2017-Apr-19 12:30S 29°53' E 031°01'0 0.0
2017-Apr-19 12:00S 29°53' E 031°01'0 0.0
2017-Apr-19 11:18S 29°53' E 031°01'0 0.0
2017-Apr-19 10:48S 29°53' E 031°01'0 0.0
2017-Apr-19 10:30S 29°53' E 031°01'0 0.0
2017-Apr-19 10:00S 29°53' E 031°01'0 0.0
2017-Apr-19 09:30S 29°53' E 031°01'0 0.0
2017-Apr-19 09:00S 29°53' E 031°01'0 0.0
2017-Apr-19 08:30S 29°53' E 031°01'0 0.0
2017-Apr-19 08:00S 29°53' E 031°01'0 0.0
2017-Apr-19 07:30S 29°53' E 031°01'0 0.0
2017-Apr-19 07:00S 29°53' E 031°01'0 0.0
2017-Apr-19 06:30S 29°53' E 031°01'0 0.0
2017-Apr-19 06:00S 29°53' E 031°01'0 0.0
2017-Apr-19 05:30S 29°53' E 031°01'0 0.0
2017-Apr-19 05:00S 29°53' E 031°01'0 0.0
2017-Apr-19 04:30S 29°53' E 031°01'0 0.0
2017-Apr-19 04:00S 29°53' E 031°01'0 0.0
2017-Apr-19 03:30S 29°53' E 031°01'0 0.0
2017-Apr-19 03:00S 29°53' E 031°01'0 0.0
2017-Apr-19 02:30S 29°53' E 031°01'0 0.0
2017-Apr-19 01:57S 29°53' E 031°01'0 0.0
2017-Apr-19 01:30S 29°53' E 031°01'0 0.0
2017-Apr-19 01:00S 29°53' E 031°01'0 0.0
2017-Apr-19 00:30S 29°53' E 031°01'0 0.0
2017-Apr-19 00:00S 29°53' E 031°01'0 0.0
2017-Apr-18 23:30S 29°53' E 031°01'0 0.0
2017-Apr-18 23:00S 29°53' E 031°01'0 0.0
2017-Apr-18 22:18S 29°53' E 031°01'0 0.0
2017-Apr-18 22:00S 29°53' E 031°01'0 0.0
2017-Apr-18 21:30S 29°53' E 031°01'0 0.0
2017-Apr-18 21:00S 29°53' E 031°01'0 0.0
2017-Apr-18 20:30S 29°53' E 031°01'0 0.0
2017-Apr-18 20:00S 29°53' E 031°01'0 0.0
2017-Apr-18 19:30S 29°53' E 031°01'0 0.0
2017-Apr-18 19:00S 29°53' E 031°01'0 0.0
2017-Apr-18 18:30S 29°53' E 031°01'0 0.0
2017-Apr-18 18:00S 29°53' E 031°01'0 0.0
2017-Apr-18 17:30S 29°53' E 031°01'0 0.0
2017-Apr-18 17:00S 29°53' E 031°01'0 0.0
2017-Apr-18 16:30S 29°53' E 031°01'0 0.0
2017-Apr-18 16:00S 29°53' E 031°01'0 0.0
2017-Apr-18 15:27S 29°53' E 031°01'0 0.0
2017-Apr-18 15:00S 29°53' E 031°01'0 0.0
2017-Apr-18 14:30S 29°53' E 031°01'0 0.0
2017-Apr-18 13:30S 29°53' E 031°01'0 0.0
2017-Apr-18 13:00S 29°53' E 031°01'0 0.0
2017-Apr-18 12:30S 29°53' E 031°01'0 0.0
2017-Apr-18 12:00S 29°53' E 031°01'0 0.0
2017-Apr-18 11:30S 29°53' E 031°01'0 0.0
2017-Apr-18 10:54S 29°53' E 031°01'0 0.0
2017-Apr-18 10:30S 29°53' E 031°01'0 0.0
2017-Apr-18 10:00S 29°53' E 031°01'0 0.0
2017-Apr-18 09:30S 29°53' E 031°01'0 0.0
2017-Apr-18 08:54S 29°53' E 031°01'0 0.0
2017-Apr-18 08:30S 29°53' E 031°01'0 0.0
2017-Apr-18 08:00S 29°53' E 031°01'0 0.0
2017-Apr-18 07:27S 29°53' E 031°01'0 0.0
2017-Apr-18 07:00S 29°53' E 031°01'0 0.0
2017-Apr-18 06:30S 29°53' E 031°01'0 0.0
2017-Apr-18 06:00S 29°53' E 031°01'0 0.0
2017-Apr-18 05:24S 29°53' E 031°01'0 0.0
2017-Apr-18 04:57S 29°53' E 031°01'0 0.0
2017-Apr-18 04:30S 29°53' E 031°01'0 0.0
2017-Apr-18 04:00S 29°53' E 031°01'0 0.0
2017-Apr-18 03:30S 29°53' E 031°01'0 0.0
2017-Apr-18 03:00S 29°53' E 031°01'0 0.0
2017-Apr-18 02:30S 29°53' E 031°01'0 0.0
2017-Apr-18 02:00S 29°53' E 031°01'0 0.6
2017-Apr-18 01:30S 29°53' E 031°02'2 3.3
2017-Apr-18 01:00S 29°52' E 031°03'4 8.5
2017-Apr-18 00:30S 29°49' E 031°07'510.4
2017-Apr-18 00:00S 29°47' E 031°12'4 7.1
2017-Apr-17 23:30S 29°43' E 031°12'0 0.3
2017-Apr-17 23:00S 29°43' E 031°12'0 0.0
2017-Apr-17 22:30S 29°43' E 031°12'0 0.0
2017-Apr-17 21:57S 29°43' E 031°12'0 0.0
2017-Apr-17 21:28S 29°43' E 031°12'0 0.1
2017-Apr-17 20:58S 29°43' E 031°12'0 0.1
2017-Apr-17 20:29S 29°43' E 031°12'0 0.0
2017-Apr-17 19:58S 29°43' E 031°12'0 0.0
2017-Apr-17 19:29S 29°43' E 031°12'0 0.0
2017-Apr-17 19:00S 29°43' E 031°12'0 0.1
2017-Apr-17 18:28S 29°43' E 031°12'0 0.0
2017-Apr-17 17:58S 29°43' E 031°12'0 0.0
2017-Apr-17 17:30S 29°43' E 031°12'0 0.0
2017-Apr-17 16:58S 29°43' E 031°12'0 0.2
2017-Apr-17 16:28S 29°43' E 031°12'0 0.0
2017-Apr-17 15:59S 29°43' E 031°12'0 0.1
2017-Apr-17 15:25S 29°43' E 031°12'0 0.1
2017-Apr-17 14:58S 29°43' E 031°12'0 0.1
2017-Apr-17 13:58S 29°43' E 031°12'0 0.2
2017-Apr-17 13:28S 29°43' E 031°12'0 0.1
2017-Apr-17 12:58S 29°43' E 031°12'0 0.1
2017-Apr-17 12:27S 29°43' E 031°12'0 0.1
2017-Apr-17 12:00S 29°43' E 031°12'0 0.1
2017-Apr-17 11:26S 29°43' E 031°12'0 0.1
2017-Apr-17 10:56S 29°43' E 031°12'0 0.1
2017-Apr-17 10:17S 29°43' E 031°12'0 0.2
2017-Apr-17 09:59S 29°43' E 031°12'0 0.1
2017-Apr-17 09:29S 29°43' E 031°12'0 0.0
2017-Apr-17 08:57S 29°43' E 031°12'0 0.1
2017-Apr-17 08:27S 29°43' E 031°12'0 0.0
2017-Apr-17 08:00S 29°43' E 031°12'0 0.0
2017-Apr-17 07:28S 29°43' E 031°12'0 0.0
2017-Apr-17 06:56S 29°43' E 031°12'0 0.1
2017-Apr-17 06:26S 29°43' E 031°12'0 0.0
2017-Apr-17 05:59S 29°43' E 031°12'0 0.0
2017-Apr-17 05:29S 29°43' E 031°12'0 0.0
2017-Apr-17 04:59S 29°43' E 031°12'0 0.0
2017-Apr-17 04:28S 29°43' E 031°12'0 0.0
2017-Apr-17 03:59S 29°43' E 031°12'0 0.1
2017-Apr-17 03:29S 29°43' E 031°12'0 0.1
2017-Apr-17 02:59S 29°43' E 031°12'0 0.0
2017-Apr-17 02:29S 29°43' E 031°12'0 0.0
2017-Apr-17 01:59S 29°43' E 031°12'0 0.0
2017-Apr-17 01:29S 29°43' E 031°12'0 0.0
2017-Apr-17 00:59S 29°43' E 031°12'0 0.0
2017-Apr-17 00:29S 29°43' E 031°12'0 0.0
2017-Apr-16 23:58S 29°43' E 031°12'0 0.0
2017-Apr-16 23:28S 29°43' E 031°12'0 0.0
2017-Apr-16 22:58S 29°43' E 031°12'0 0.0
2017-Apr-16 22:27S 29°43' E 031°12'0 0.0
2017-Apr-16 21:59S 29°43' E 031°12'0 0.0
2017-Apr-16 21:30S 29°43' E 031°12'0 0.0
2017-Apr-16 21:00S 29°43' E 031°12'0 0.0
2017-Apr-16 20:30S 29°43' E 031°12'0 0.0
2017-Apr-16 20:00S 29°43' E 031°12'0 0.0
2017-Apr-16 19:30S 29°43' E 031°12'0 0.0
2017-Apr-16 19:00S 29°43' E 031°12'0 0.0
2017-Apr-16 18:30S 29°43' E 031°12'0 0.0
2017-Apr-16 18:00S 29°43' E 031°12'0 0.0
2017-Apr-16 17:29S 29°43' E 031°12'0 0.0
2017-Apr-16 16:58S 29°43' E 031°12'0 0.1
2017-Apr-16 16:28S 29°43' E 031°12'0 0.0
2017-Apr-16 16:00S 29°43' E 031°12'0 0.0
2017-Apr-16 15:30S 29°43' E 031°12'0 0.0
2017-Apr-16 15:00S 29°43' E 031°12'0 0.0
2017-Apr-16 14:30S 29°43' E 031°12'0 0.0
2017-Apr-16 13:30S 29°43' E 031°12'0 0.0
2017-Apr-16 12:59S 29°43' E 031°12'0 0.0
2017-Apr-16 12:26S 29°43' E 031°12'0 0.0
2017-Apr-16 11:59S 29°43' E 031°12'0 0.0
2017-Apr-16 11:28S 29°43' E 031°12'0 0.0
2017-Apr-16 10:59S 29°43' E 031°12'0 0.0
2017-Apr-16 10:29S 29°43' E 031°12'0 0.0
2017-Apr-16 09:59S 29°43' E 031°12'0 0.0
2017-Apr-16 09:28S 29°43' E 031°12'0 0.1
2017-Apr-16 08:58S 29°43' E 031°12'0 0.0
2017-Apr-16 08:27S 29°43' E 031°12'0 0.1
2017-Apr-16 08:00S 29°43' E 031°12'0 0.0
2017-Apr-16 07:30S 29°43' E 031°12'0 0.0
2017-Apr-16 06:56S 29°43' E 031°12'0 0.1
2017-Apr-16 06:29S 29°43' E 031°12'1 1.5
2017-Apr-16 06:00S 29°43' E 031°12'2 4.9
2017-Apr-16 05:31S 29°44' E 031°15'816.0
2017-Apr-16 05:01S 29°52' E 031°15'816.3
2017-Apr-16 04:30S 30°00' E 031°15'815.6
2017-Apr-16 04:01S 30°07' E 031°13'815.5
2017-Apr-16 03:31S 30°14' E 031°07'815.6
2017-Apr-16 03:00S 30°20' E 031°02'714.6
2017-Apr-16 02:30S 30°26' E 030°58'68715.7
2017-Apr-14 06:53S 33°59' E 018°06'718.7
2017-Apr-14 06:30S 33°52' E 018°03'  

Dump ship's entire track history